Terminal Aerodrome Forecast
Issued by NWS Quad Cities IA IL

Current Version | Previous Version | Text Only | Print | Product List | Glossary On
Versions: 1 2 3 4 5 6 7 8 9 10 11 12 13 14 15 16 17
000
FTUS43 KDVN 200500
TAFMLI
TAF
KMLI 200520Z 2006/2106 11003KT P6SM BKN040 OVC050
     FM200700 13004KT P6SM OVC025
     FM201300 16005KT 6SM BR OVC019
     FM201900 17005KT P6SM OVC025
     FM210100 18006KT 6SM BR OVC015=

USA.gov is the U.S. government's official web portal to all federal, state and local government web resources and services.